createdAt,value
2019-05-28T00:02:45.590Z,94373.92
2019-05-28T00:07:50.402Z,94375.03
2019-05-28T00:12:55.232Z,94372.66
2019-05-28T00:17:59.977Z,94351.34
2019-05-28T00:23:04.832Z,94354.34
2019-05-28T00:28:09.648Z,94346.63
2019-05-28T00:33:14.445Z,94346.25
2019-05-28T00:38:19.207Z,94351.29
2019-05-28T00:43:24.021Z,94346.23
2019-05-28T00:48:28.762Z,94350.80
2019-05-28T00:53:33.479Z,94353.59
2019-05-28T00:58:38.609Z,94360.18
2019-05-28T01:03:43.451Z,94356.55
2019-05-28T01:08:48.303Z,94345.58
2019-05-28T01:13:53.107Z,94333.66
2019-05-28T01:18:57.969Z,94334.83
2019-05-28T01:24:02.790Z,94327.28
2019-05-28T01:29:07.526Z,94317.44
2019-05-28T01:34:12.326Z,94312.10
2019-05-28T01:39:17.158Z,94308.09
2019-05-28T01:44:22.019Z,94298.91
2019-05-28T01:49:26.774Z,94300.02
2019-05-28T01:54:31.533Z,94298.69
2019-05-28T01:59:36.423Z,94309.19
2019-05-28T02:04:41.257Z,94298.78
2019-05-28T02:09:46.016Z,94298.89
2019-05-28T02:14:50.758Z,94302.52
2019-05-28T02:19:55.564Z,94300.48
2019-05-28T02:25:00.251Z,94308.69
2019-05-28T02:30:11.189Z,94303.83
2019-05-28T02:35:16.511Z,94301.41
2019-05-28T02:40:21.791Z,94297.95
2019-05-28T02:45:26.713Z,94312.12
2019-05-28T02:50:52.393Z,94301.17
2019-05-28T02:55:57.830Z,94298.74
2019-05-28T03:01:03.535Z,94300.97
2019-05-28T03:06:08.292Z,94296.87
2019-05-28T03:11:13.058Z,94298.16
2019-05-28T03:16:20.737Z,94287.27
2019-05-28T03:21:27.318Z,94273.12
2019-05-28T03:26:32.172Z,94288.20
2019-05-28T03:31:36.937Z,94290.73
2019-05-28T03:36:42.403Z,94294.13
2019-05-28T03:41:47.225Z,94299.75
2019-05-28T03:46:51.985Z,94310.59
2019-05-28T03:51:56.815Z,94307.30
2019-05-28T03:57:01.551Z,94304.44
2019-05-28T04:02:20.673Z,94303.02
2019-05-28T04:07:12.747Z,94304.77
2019-05-28T04:12:17.531Z,94303.34
2019-05-28T04:17:22.350Z,94303.82
2019-05-28T04:22:28.324Z,94305.22
2019-05-28T04:27:33.133Z,94315.19
2019-05-28T04:32:41.087Z,94309.10
2019-05-28T04:37:45.281Z,94309.34
2019-05-28T04:42:50.094Z,94315.03
2019-05-28T04:47:54.810Z,94308.91
2019-05-28T04:52:59.613Z,94310.37
2019-05-28T04:58:04.419Z,94303.67
2019-05-28T05:03:09.207Z,94298.42
2019-05-28T05:08:14.009Z,94305.27
2019-05-28T05:13:19.766Z,94298.38
2019-05-28T05:18:24.627Z,94294.86
2019-05-28T05:23:29.396Z,94303.09
2019-05-28T05:28:34.222Z,94292.63
2019-05-28T05:33:39.005Z,94295.82
2019-05-28T05:38:43.704Z,94296.98
2019-05-28T05:43:48.422Z,94291.02
2019-05-28T05:48:53.148Z,94290.22
2019-05-28T05:53:57.913Z,94293.16
2019-05-28T05:59:02.743Z,94279.15
2019-05-28T06:04:07.533Z,94271.63
2019-05-28T06:09:12.277Z,94270.98
2019-05-28T06:14:17.061Z,94276.50
2019-05-28T06:19:21.871Z,94266.19
2019-05-28T06:24:26.627Z,94266.75
2019-05-28T06:29:31.435Z,94258.14
2019-05-28T06:34:36.140Z,94262.19
2019-05-28T06:39:40.714Z,94265.48
2019-05-28T06:44:45.429Z,94265.27
2019-05-28T06:49:50.245Z,94252.36
2019-05-28T06:54:55.229Z,94248.94
2019-05-28T07:00:01.955Z,94245.89
2019-05-28T07:05:07.671Z,94239.53
2019-05-28T07:10:13.692Z,94246.41
2019-05-28T07:15:18.393Z,94237.83
2019-05-28T07:20:23.174Z,94237.52
2019-05-28T07:25:27.967Z,94243.49
2019-05-28T07:30:32.713Z,94233.75
2019-05-28T07:35:45.787Z,94222.55
2019-05-28T07:40:44.023Z,94224.19
2019-05-28T07:45:48.823Z,94217.38
2019-05-28T07:50:53.537Z,94224.94
2019-05-28T07:55:59.366Z,94213.36
2019-05-28T08:01:04.201Z,94219.33
2019-05-28T08:06:08.941Z,94211.84
2019-05-28T08:11:13.721Z,94201.05
2019-05-28T08:16:19.893Z,94206.43
2019-05-28T08:21:24.684Z,94197.91
2019-05-28T08:26:29.462Z,94194.55
2019-05-28T08:31:34.264Z,94183.66
2019-05-28T08:36:41.554Z,94187.64
2019-05-28T08:41:46.261Z,94181.51
2019-05-28T08:46:53.213Z,94178.86
2019-05-28T08:51:58.022Z,94190.41
2019-05-28T08:57:02.749Z,94188.39
2019-05-28T09:02:26.008Z,94175.38
2019-05-28T09:07:14.079Z,94172.08
2019-05-28T09:12:18.826Z,94168.89
2019-05-28T09:17:23.550Z,94163.89
2019-05-28T09:22:28.338Z,94159.77
2019-05-28T09:27:33.101Z,94160.41
2019-05-28T09:32:37.877Z,94162.04
2019-05-28T09:37:42.726Z,94150.90
2019-05-28T09:42:47.515Z,94146.20
2019-05-28T09:47:55.338Z,94154.72
2019-05-28T09:53:01.274Z,94142.39
2019-05-28T09:58:07.072Z,94139.18
2019-05-28T10:03:11.878Z,94133.02
2019-05-28T10:08:16.548Z,94131.12
2019-05-28T10:13:37.344Z,94134.13
2019-05-28T10:18:28.813Z,94120.73
2019-05-28T10:23:33.614Z,94107.80
2019-05-28T10:28:38.399Z,94095.93
2019-05-28T10:33:43.168Z,94101.80
2019-05-28T10:38:47.954Z,94084.90
2019-05-28T10:43:52.737Z,94083.14
2019-05-28T10:48:57.552Z,94069.22
2019-05-28T10:54:02.373Z,94056.05
2019-05-28T10:59:08.267Z,94056.16
2019-05-28T11:04:13.055Z,94048.92
2019-05-28T11:09:18.037Z,94046.27
2019-05-28T11:14:22.877Z,94041.52
2019-05-28T11:19:27.694Z,94032.58
2019-05-28T11:24:32.435Z,94029.11
2019-05-28T11:29:37.143Z,94018.73
2019-05-28T11:34:41.881Z,94009.44
2019-05-28T11:39:46.653Z,94001.81
2019-05-28T11:44:51.295Z,94002.91
2019-05-28T11:49:57.671Z,93998.25
2019-05-28T11:55:02.476Z,94000.73
2019-05-28T12:00:10.103Z,93997.44
2019-05-28T12:05:16.864Z,93990.62
2019-05-28T12:10:21.703Z,93974.02
2019-05-28T12:15:26.785Z,93961.19
2019-05-28T12:20:33.858Z,93957.28
2019-05-28T12:25:39.906Z,93947.78
2019-05-28T12:30:44.702Z,93943.17
2019-05-28T12:35:50.424Z,93936.43
2019-05-28T12:40:55.195Z,93933.71
2019-05-28T12:45:59.968Z,93914.65
2019-05-28T12:51:04.832Z,93934.91
2019-05-28T12:56:09.638Z,93930.55
2019-05-28T13:01:15.438Z,93924.08
2019-05-28T13:06:20.130Z,93930.75
2019-05-28T13:11:24.934Z,93915.30
2019-05-28T13:16:29.760Z,93910.95
2019-05-28T13:21:34.560Z,93906.84
2019-05-28T13:26:39.445Z,93921.19
2019-05-28T13:31:44.256Z,93912.25
2019-05-28T13:36:49.128Z,93899.52
2019-05-28T13:41:53.895Z,93893.46
2019-05-28T13:46:58.688Z,93883.06
2019-05-28T13:52:11.899Z,93878.78
2019-05-28T13:57:09.974Z,93873.99
2019-05-28T14:02:14.737Z,93878.97
2019-05-28T14:07:19.509Z,93872.20
2019-05-28T14:12:24.384Z,93871.69
2019-05-28T14:17:29.531Z,93864.77
2019-05-28T14:22:34.871Z,93856.66
2019-05-28T14:27:39.711Z,93855.30
2019-05-28T14:32:44.511Z,93839.27
2019-05-28T14:37:49.275Z,93838.72
2019-05-28T14:42:54.057Z,93826.39
2019-05-28T14:47:58.782Z,93835.83
2019-05-28T14:53:03.561Z,93831.19
2019-05-28T14:58:12.798Z,93832.97
2019-05-28T15:03:14.955Z,93825.92
2019-05-28T15:08:19.751Z,93822.13
2019-05-28T15:13:26.128Z,93822.63
2019-05-28T15:18:30.932Z,93815.11
2019-05-28T15:23:35.722Z,93804.78
2019-05-28T15:28:40.478Z,93807.95
2019-05-28T15:33:45.278Z,93799.11
2019-05-28T15:38:51.168Z,93796.41
2019-05-28T15:43:56.051Z,93803.38
2019-05-28T15:49:00.827Z,93795.38
2019-05-28T15:54:06.900Z,93785.97
2019-05-28T15:59:11.934Z,93782.21
2019-05-28T16:04:16.729Z,93785.11
2019-05-28T16:09:21.537Z,93789.49
2019-05-28T16:14:26.305Z,93791.89
2019-05-28T16:19:31.073Z,93791.11
2019-05-28T16:24:35.841Z,93788.03
2019-05-28T16:29:41.636Z,93770.62
2019-05-28T16:34:46.407Z,93775.86
2019-05-28T16:39:51.207Z,93767.45
2019-05-28T16:44:56.459Z,93751.36
2019-05-28T16:50:01.493Z,93744.30
2019-05-28T16:55:09.777Z,93750.00
2019-05-28T17:00:16.873Z,93760.59
2019-05-28T17:05:21.634Z,93757.03
2019-05-28T17:10:32.792Z,93759.19
2019-05-28T17:15:32.545Z,93757.75
2019-05-28T17:20:37.241Z,93752.52
2019-05-28T17:25:41.799Z,93742.96
2019-05-28T17:30:47.243Z,93740.48
2019-05-28T17:35:51.910Z,93742.00
2019-05-28T17:40:56.554Z,93745.71
2019-05-28T17:46:01.145Z,93758.98
2019-05-28T17:51:05.876Z,93751.50
2019-05-28T17:56:11.920Z,93744.64
2019-05-28T18:01:16.471Z,93751.00
2019-05-28T18:06:20.951Z,93743.80
2019-05-28T18:11:25.621Z,93762.75
2019-05-28T18:16:31.251Z,93786.24
2019-05-28T18:21:35.744Z,93795.93
2019-05-28T18:26:40.418Z,93820.83
2019-05-28T18:31:45.113Z,93819.75
2019-05-28T18:36:49.671Z,93844.36
2019-05-28T18:41:54.174Z,93848.17
2019-05-28T18:46:58.823Z,93847.65
2019-05-28T18:52:03.537Z,93863.98
2019-05-28T18:57:08.170Z,93870.22
2019-05-28T19:02:12.801Z,93885.48
2019-05-28T19:07:17.531Z,93914.26
2019-05-28T19:12:25.537Z,93908.19
2019-05-28T19:17:31.238Z,93921.38
2019-05-28T19:22:36.102Z,93934.91
2019-05-28T19:27:40.711Z,93937.70
2019-05-28T19:32:47.041Z,93957.05
2019-05-28T19:37:51.587Z,93956.66
2019-05-28T19:42:56.193Z,93955.98
2019-05-28T19:48:00.916Z,93963.19
2019-05-28T19:53:06.160Z,93964.55
2019-05-28T19:58:10.794Z,93973.03
2019-05-28T20:03:15.467Z,93966.47
2019-05-28T20:08:19.973Z,93969.89
2019-05-28T20:13:24.537Z,93989.60
2019-05-28T20:18:29.102Z,93994.39
2019-05-28T20:23:33.596Z,93994.91
2019-05-28T20:28:38.091Z,93998.00
2019-05-28T20:33:42.732Z,93995.91
2019-05-28T20:38:47.920Z,94004.31
2019-05-28T20:43:54.921Z,94007.80
2019-05-28T20:49:00.860Z,94004.66
2019-05-28T20:54:05.609Z,94014.86
2019-05-28T20:59:10.139Z,94009.61
2019-05-28T21:04:14.792Z,94012.09
2019-05-28T21:09:19.282Z,94019.51
2019-05-28T21:14:24.005Z,94024.54
2019-05-28T21:19:29.740Z,94025.45
2019-05-28T21:24:34.230Z,94034.53
2019-05-28T21:29:38.879Z,94045.68
2019-05-28T21:34:43.552Z,94040.14
2019-05-28T21:39:48.066Z,94043.88
2019-05-28T21:44:53.959Z,94038.80
2019-05-28T21:49:59.455Z,94054.59
2019-05-28T21:55:08.116Z,94055.70
2019-05-28T22:00:23.167Z,94056.77
2019-05-28T22:05:29.521Z,94056.66
2019-05-28T22:10:34.152Z,94057.58
2019-05-28T22:15:38.688Z,94057.40
2019-05-28T22:20:43.389Z,94056.96
2019-05-28T22:25:48.110Z,94061.45
2019-05-28T22:30:53.258Z,94060.11
2019-05-28T22:35:59.199Z,94063.17
2019-05-28T22:41:04.512Z,94069.78
2019-05-28T22:46:09.559Z,94064.62
2019-05-28T22:51:14.513Z,94067.01
2019-05-28T22:56:18.981Z,94065.81
2019-05-28T23:01:23.542Z,94060.48
2019-05-28T23:06:28.234Z,94063.63
2019-05-28T23:11:32.857Z,94058.48
2019-05-28T23:16:37.571Z,94061.03
2019-05-28T23:21:42.134Z,94067.16
2019-05-28T23:26:46.611Z,94071.63
2019-05-28T23:31:51.242Z,94087.16
2019-05-28T23:36:56.890Z,94087.47
2019-05-28T23:42:01.464Z,94097.88
2019-05-28T23:47:06.086Z,94096.86
2019-05-28T23:52:12.745Z,94096.23
2019-05-28T23:57:18.187Z,94089.58
